createdAt,value
2022-11-21T00:00:10.919Z,-1.15
2022-11-21T00:01:10.902Z,-1.18
2022-11-21T00:02:10.945Z,-1.23
2022-11-21T00:03:10.912Z,-1.23
2022-11-21T00:04:10.869Z,-1.26
2022-11-21T00:05:10.864Z,-1.29
2022-11-21T00:06:13.806Z,-1.29
2022-11-21T00:07:10.927Z,-1.31
2022-11-21T00:08:10.838Z,-1.28
2022-11-21T00:09:10.824Z,-1.29
2022-11-21T00:10:10.836Z,-1.28
2022-11-21T00:11:12.728Z,-1.26
2022-11-21T00:12:10.787Z,-1.23
2022-11-21T00:13:10.829Z,-1.21
2022-11-21T00:14:10.761Z,-1.21
2022-11-21T00:15:10.767Z,-1.18
2022-11-21T00:16:10.755Z,-1.17
2022-11-21T00:17:10.755Z,-1.18
2022-11-21T00:18:10.724Z,-1.14
2022-11-21T00:19:10.709Z,-1.11
2022-11-21T00:20:10.700Z,-1.13
2022-11-21T00:21:10.693Z,-1.10
2022-11-21T00:22:10.694Z,-1.13
2022-11-21T00:23:10.660Z,-1.11
2022-11-21T00:24:10.654Z,-1.15
2022-11-21T00:25:10.663Z,-1.17
2022-11-21T00:26:10.664Z,-1.18
2022-11-21T00:27:10.651Z,-1.15
2022-11-21T00:28:10.629Z,-1.11
2022-11-21T00:29:10.660Z,-1.08
2022-11-21T00:30:10.602Z,-1.10
2022-11-21T00:31:10.649Z,-1.11
2022-11-21T00:32:10.637Z,-1.11
2022-11-21T00:33:10.674Z,-1.11
2022-11-21T00:34:10.552Z,-1.05
2022-11-21T00:35:10.608Z,-1.02
2022-11-21T00:36:10.616Z,-1.00
2022-11-21T00:37:10.619Z,-1.02
2022-11-21T00:38:10.531Z,-1.03
2022-11-21T00:39:10.493Z,-1.05
2022-11-21T00:40:10.517Z,-1.08
2022-11-21T00:41:10.485Z,-1.08
2022-11-21T00:42:10.481Z,-1.07
2022-11-21T00:43:10.598Z,-1.07
2022-11-21T00:44:10.451Z,-1.07
2022-11-21T00:45:10.432Z,-1.08
2022-11-21T00:46:10.435Z,-1.05
2022-11-21T00:47:10.606Z,-1.03
2022-11-21T00:48:10.491Z,-1.00
2022-11-21T00:49:10.581Z,-1.00
2022-11-21T00:50:10.626Z,-0.99
2022-11-21T00:51:10.595Z,-0.95
2022-11-21T00:52:10.663Z,-0.92
2022-11-21T00:53:10.368Z,-0.90
2022-11-21T00:54:10.341Z,-0.89
2022-11-21T00:55:10.627Z,-0.92
2022-11-21T00:56:10.339Z,-0.86
2022-11-21T00:57:10.324Z,-0.86
2022-11-21T00:58:10.612Z,-0.85
2022-11-21T00:59:10.285Z,-0.80
2022-11-21T01:00:10.338Z,-0.86
2022-11-21T01:01:10.295Z,-0.81
2022-11-21T01:02:10.266Z,-0.81
2022-11-21T01:03:10.249Z,-0.80
2022-11-21T01:04:10.250Z,-0.83
2022-11-21T01:05:10.525Z,-0.81
2022-11-21T01:06:10.231Z,-0.77
2022-11-21T01:07:10.258Z,-0.80
2022-11-21T01:08:10.201Z,-0.80
2022-11-21T01:09:10.202Z,-0.77
2022-11-21T01:10:10.263Z,-0.77
2022-11-21T01:11:10.224Z,-0.77
2022-11-21T01:12:10.222Z,-0.74
2022-11-21T01:13:10.151Z,-0.71
2022-11-21T01:14:10.149Z,-0.70
2022-11-21T01:15:10.152Z,-0.74
2022-11-21T01:16:10.229Z,-0.71
2022-11-21T01:17:10.106Z,-0.68
2022-11-21T01:18:10.143Z,-0.65
2022-11-21T01:19:10.087Z,-0.65
2022-11-21T01:20:10.070Z,-0.68
2022-11-21T01:21:10.069Z,-0.65
2022-11-21T01:22:10.088Z,-0.68
2022-11-21T01:23:10.054Z,-0.67
2022-11-21T01:24:10.050Z,-0.63
2022-11-21T01:25:10.020Z,-0.62
2022-11-21T01:26:10.096Z,-0.60
2022-11-21T01:27:10.095Z,-0.59
2022-11-21T01:28:10.129Z,-0.56
2022-11-21T01:29:10.021Z,-0.58
2022-11-21T01:30:09.964Z,-0.53
2022-11-21T01:31:09.962Z,-0.56
2022-11-21T01:32:09.950Z,-0.59
2022-11-21T01:33:09.975Z,-0.60
2022-11-21T01:34:10.026Z,-0.58
2022-11-21T01:35:09.920Z,-0.56
2022-11-21T01:36:10.100Z,-0.56
2022-11-21T01:37:10.032Z,-0.53
2022-11-21T01:38:09.948Z,-0.52
2022-11-21T01:39:09.879Z,-0.49
2022-11-21T01:40:10.704Z,-0.44
2022-11-21T01:41:09.973Z,-0.45
2022-11-21T01:42:09.871Z,-0.44
2022-11-21T01:43:10.692Z,-0.41
2022-11-21T01:44:09.968Z,-0.39
2022-11-21T01:45:09.866Z,-0.37
2022-11-21T01:46:09.978Z,-0.37
2022-11-21T01:47:09.798Z,-0.35
2022-11-21T01:48:09.979Z,-0.34
2022-11-21T01:49:09.780Z,-0.34
2022-11-21T01:50:13.016Z,-0.34
2022-11-21T01:51:09.920Z,-0.34
2022-11-21T01:52:09.760Z,-0.32
2022-11-21T01:53:09.803Z,-0.31
2022-11-21T01:54:09.828Z,-0.32
2022-11-21T01:55:09.773Z,-0.31
2022-11-21T01:56:09.743Z,-0.31
2022-11-21T01:57:09.764Z,-0.32
2022-11-21T01:58:09.690Z,-0.35
2022-11-21T01:59:09.676Z,-0.37
2022-11-21T02:00:09.758Z,-0.37
2022-11-21T02:01:09.692Z,-0.34
2022-11-21T02:02:09.629Z,-0.34
2022-11-21T02:03:09.621Z,-0.37
2022-11-21T02:04:09.638Z,-0.37
2022-11-21T02:05:09.596Z,-0.38
2022-11-21T02:06:09.611Z,-0.37
2022-11-21T02:07:09.639Z,-0.37
2022-11-21T02:08:09.571Z,-0.34
2022-11-21T02:09:09.556Z,-0.38
2022-11-21T02:10:09.548Z,-0.39
2022-11-21T02:11:09.551Z,-0.41
2022-11-21T02:12:09.533Z,-0.41
2022-11-21T02:13:09.527Z,-0.49
2022-11-21T02:14:09.545Z,-0.56
2022-11-21T02:15:09.529Z,-0.59
2022-11-21T02:16:09.510Z,-0.62
2022-11-21T02:17:09.476Z,-0.63
2022-11-21T02:18:09.470Z,-0.62
2022-11-21T02:19:09.470Z,-0.63
2022-11-21T02:20:09.452Z,-0.63
2022-11-21T02:21:09.438Z,-0.63
2022-11-21T02:22:09.424Z,-0.63
2022-11-21T02:23:09.412Z,-0.62
2022-11-21T02:24:09.410Z,-0.59
2022-11-21T02:25:09.406Z,-0.60
2022-11-21T02:26:09.401Z,-0.60
2022-11-21T02:27:09.373Z,-0.55
2022-11-21T02:28:09.374Z,-0.60
2022-11-21T02:29:09.356Z,-0.60
2022-11-21T02:30:09.353Z,-0.58
2022-11-21T02:31:09.330Z,-0.62
2022-11-21T02:32:09.323Z,-0.63
2022-11-21T02:33:09.315Z,-0.65
2022-11-21T02:34:09.295Z,-0.65
2022-11-21T02:35:09.302Z,-0.63
2022-11-21T02:36:09.301Z,-0.59
2022-11-21T02:37:09.274Z,-0.59
2022-11-21T02:38:09.258Z,-0.58
2022-11-21T02:39:09.261Z,-0.65
2022-11-21T02:40:09.239Z,-0.60
2022-11-21T02:41:09.237Z,-0.63
2022-11-21T02:42:09.223Z,-0.63
2022-11-21T02:43:09.199Z,-0.59
2022-11-21T02:44:10.208Z,-0.58
2022-11-21T02:45:09.192Z,-0.56
2022-11-21T02:46:09.188Z,-0.55
2022-11-21T02:47:09.169Z,-0.55
2022-11-21T02:48:09.166Z,-0.53
2022-11-21T02:49:09.145Z,-0.52
2022-11-21T02:50:09.146Z,-0.49
2022-11-21T02:51:09.164Z,-0.45
2022-11-21T02:52:09.140Z,-0.45
2022-11-21T02:53:09.113Z,-0.44
2022-11-21T02:54:09.108Z,-0.44
2022-11-21T02:55:09.087Z,-0.42
2022-11-21T02:56:09.094Z,-0.42
2022-11-21T02:57:09.068Z,-0.41
2022-11-21T02:58:09.092Z,-0.41
2022-11-21T02:59:09.032Z,-0.38
2022-11-21T03:00:09.036Z,-0.37
2022-11-21T03:01:09.071Z,-0.38
2022-11-21T03:02:09.020Z,-0.35
2022-11-21T03:03:09.023Z,-0.31
2022-11-21T03:04:09.006Z,-0.31
2022-11-21T03:05:08.979Z,-0.31
2022-11-21T03:06:09.007Z,-0.26
2022-11-21T03:07:09.037Z,-0.26
2022-11-21T03:08:08.947Z,-0.26
2022-11-21T03:09:08.935Z,-0.21
2022-11-21T03:10:08.923Z,-0.24
2022-11-21T03:11:08.931Z,-0.23
2022-11-21T03:12:08.921Z,-0.23
2022-11-21T03:13:08.892Z,-0.23
2022-11-21T03:14:08.885Z,-0.19
2022-11-21T03:15:08.863Z,-0.19
2022-11-21T03:16:08.876Z,-0.19
2022-11-21T03:17:08.864Z,-0.19
2022-11-21T03:18:08.841Z,-0.17
2022-11-21T03:19:08.841Z,-0.17
2022-11-21T03:20:08.898Z,-0.16
2022-11-21T03:21:08.880Z,-0.17
2022-11-21T03:22:08.795Z,-0.16
2022-11-21T03:23:08.785Z,-0.16
2022-11-21T03:24:08.786Z,-0.13
2022-11-21T03:25:08.774Z,-0.14
2022-11-21T03:26:08.784Z,-0.13
2022-11-21T03:27:08.750Z,-0.14
2022-11-21T03:28:08.742Z,-0.13
2022-11-21T03:29:08.744Z,-0.16
2022-11-21T03:30:08.715Z,-0.14
2022-11-21T03:31:08.731Z,-0.12
2022-11-21T03:32:08.706Z,-0.12
2022-11-21T03:33:08.678Z,-0.12
2022-11-21T03:34:08.681Z,-0.12
2022-11-21T03:35:08.663Z,-0.13
2022-11-21T03:36:08.676Z,-0.09
2022-11-21T03:37:08.647Z,-0.08
2022-11-21T03:38:08.642Z,-0.09
2022-11-21T03:39:08.625Z,-0.09
2022-11-21T03:40:08.664Z,-0.09
2022-11-21T03:41:08.655Z,-0.09
2022-11-21T03:42:08.650Z,-0.12
2022-11-21T03:43:08.594Z,-0.14
2022-11-21T03:44:08.609Z,-0.14
2022-11-21T03:45:08.642Z,-0.19
2022-11-21T03:46:08.639Z,-0.20
2022-11-21T03:47:08.540Z,-0.17
2022-11-21T03:48:08.534Z,-0.20
2022-11-21T03:49:08.614Z,-0.19
2022-11-21T03:50:08.542Z,-0.21
2022-11-21T03:51:08.609Z,-0.20
2022-11-21T03:52:08.651Z,-0.23
2022-11-21T03:53:08.643Z,-0.21
2022-11-21T03:54:08.486Z,-0.19
2022-11-21T03:55:08.582Z,-0.21
2022-11-21T03:56:08.471Z,-0.19
2022-11-21T03:57:08.448Z,-0.21
2022-11-21T03:58:08.429Z,-0.20
2022-11-21T03:59:09.312Z,-0.21
2022-11-21T04:00:08.429Z,-0.20
2022-11-21T04:01:08.593Z,-0.19
2022-11-21T04:02:08.395Z,-0.21
2022-11-21T04:03:08.614Z,-0.24
2022-11-21T04:04:08.592Z,-0.26
2022-11-21T04:05:08.357Z,-0.27
2022-11-21T04:06:08.380Z,-0.30
2022-11-21T04:07:08.684Z,-0.30
2022-11-21T04:08:08.321Z,-0.30
2022-11-21T04:09:08.306Z,-0.32
2022-11-21T04:10:08.300Z,-0.37
2022-11-21T04:11:08.311Z,-0.35
2022-11-21T04:12:08.610Z,-0.35
2022-11-21T04:13:08.273Z,-0.35
2022-11-21T04:14:08.267Z,-0.35
2022-11-21T04:15:13.434Z,-0.34
2022-11-21T04:16:08.254Z,-0.34
2022-11-21T04:17:08.808Z,-0.34
2022-11-21T04:18:08.230Z,-0.37
2022-11-21T04:19:08.216Z,-0.31
2022-11-21T04:20:08.214Z,-0.31
2022-11-21T04:21:08.589Z,-0.27
2022-11-21T04:22:08.182Z,-0.27
2022-11-21T04:23:08.170Z,-0.30
2022-11-21T04:24:08.169Z,-0.30
2022-11-21T04:25:08.176Z,-0.32
2022-11-21T04:26:08.167Z,-0.30
2022-11-21T04:27:08.148Z,-0.31
2022-11-21T04:28:08.114Z,-0.30
2022-11-21T04:29:08.132Z,-0.30
2022-11-21T04:30:08.714Z,-0.27
2022-11-21T04:31:10.851Z,-0.23
2022-11-21T04:32:08.078Z,-0.23
2022-11-21T04:33:08.085Z,-0.20
2022-11-21T04:34:08.051Z,-0.20
2022-11-21T04:35:08.056Z,-0.20
2022-11-21T04:36:08.087Z,-0.19
2022-11-21T04:37:11.580Z,-0.17
2022-11-21T04:38:08.017Z,-0.14
2022-11-21T04:39:08.034Z,-0.16
2022-11-21T04:40:08.062Z,-0.13
2022-11-21T04:41:08.047Z,-0.13
2022-11-21T04:42:07.972Z,-0.14
2022-11-21T04:43:08.038Z,-0.13
2022-11-21T04:44:07.996Z,-0.13
2022-11-21T04:45:07.947Z,-0.12
2022-11-21T04:46:08.003Z,-0.12
2022-11-21T04:47:08.069Z,-0.12
2022-11-21T04:48:07.951Z,-0.09
2022-11-21T04:49:07.996Z,-0.08
2022-11-21T04:50:07.884Z,-0.09
2022-11-21T04:51:07.906Z,-0.12
2022-11-21T04:52:07.877Z,-0.06
2022-11-21T04:53:08.837Z,-0.06
2022-11-21T04:54:07.837Z,-0.08
2022-11-21T04:55:07.913Z,-0.05
2022-11-21T04:56:07.851Z,-0.06
2022-11-21T04:57:07.915Z,-0.08
2022-11-21T04:58:07.819Z,-0.09
2022-11-21T04:59:07.823Z,-0.09
2022-11-21T05:00:07.773Z,-0.06
2022-11-21T05:01:07.812Z,-0.12
2022-11-21T05:02:07.817Z,-0.06
2022-11-21T05:03:07.757Z,-0.06
2022-11-21T05:04:07.757Z,-0.08
2022-11-21T05:05:07.727Z,-0.12
2022-11-21T05:06:07.782Z,-0.08
2022-11-21T05:07:07.777Z,-0.06
2022-11-21T05:08:07.688Z,-0.06
2022-11-21T05:09:07.683Z,-0.06
2022-11-21T05:10:07.686Z,-0.06
2022-11-21T05:11:07.671Z,-0.03
2022-11-21T05:12:07.666Z,-0.09
2022-11-21T05:13:07.684Z,-0.05
2022-11-21T05:14:07.630Z,-0.06
2022-11-21T05:15:07.628Z,-0.03
2022-11-21T05:16:07.636Z,-0.05
2022-11-21T05:17:07.605Z,-0.02
2022-11-21T05:18:07.603Z,-0.03
2022-11-21T05:19:07.586Z,-0.02
2022-11-21T05:20:07.572Z,-0.01
2022-11-21T05:21:07.587Z,0.02
2022-11-21T05:22:07.558Z,0.02
2022-11-21T05:23:07.541Z,0.04
2022-11-21T05:24:07.556Z,0.05
2022-11-21T05:25:07.528Z,0.04
2022-11-21T05:26:07.520Z,0.05
2022-11-21T05:27:07.508Z,0.08
2022-11-21T05:28:07.493Z,0.07
2022-11-21T05:29:07.490Z,0.08
2022-11-21T05:30:07.462Z,0.10
2022-11-21T05:31:07.515Z,0.12
2022-11-21T05:32:07.457Z,0.12
2022-11-21T05:33:07.432Z,0.12
2022-11-21T05:34:07.480Z,0.12
2022-11-21T05:35:07.434Z,0.13
2022-11-21T05:36:07.403Z,0.13
2022-11-21T05:37:07.392Z,0.15
2022-11-21T05:38:07.380Z,0.16
2022-11-21T05:39:07.400Z,0.15
2022-11-21T05:40:07.351Z,0.16
2022-11-21T05:41:07.356Z,0.16
2022-11-21T05:42:07.361Z,0.17
2022-11-21T05:43:07.341Z,0.15
2022-11-21T05:44:07.316Z,0.17
2022-11-21T05:45:07.307Z,0.20
2022-11-21T05:46:07.299Z,0.20
2022-11-21T05:47:07.297Z,0.19
2022-11-21T05:48:07.267Z,0.20
2022-11-21T05:49:07.269Z,0.19
2022-11-21T05:50:07.276Z,0.19
2022-11-21T05:51:07.244Z,0.20
2022-11-21T05:52:07.259Z,0.22
2022-11-21T05:53:07.237Z,0.20
2022-11-21T05:54:07.205Z,0.20
2022-11-21T05:55:07.205Z,0.20
2022-11-21T05:56:07.195Z,0.22
2022-11-21T05:57:07.211Z,0.20
2022-11-21T05:58:07.168Z,0.22
2022-11-21T05:59:07.178Z,0.20
2022-11-21T06:00:07.158Z,0.20
2022-11-21T06:01:07.145Z,0.19
2022-11-21T06:02:07.129Z,0.19
2022-11-21T06:03:07.176Z,0.19
2022-11-21T06:04:07.106Z,0.20
2022-11-21T06:05:07.109Z,0.16
2022-11-21T06:06:07.082Z,0.13
2022-11-21T06:07:07.069Z,0.20
2022-11-21T06:08:07.013Z,0.20
2022-11-21T06:09:07.073Z,0.19
2022-11-21T06:10:07.046Z,0.20
2022-11-21T06:11:07.005Z,0.20
2022-11-21T06:12:06.984Z,0.22
2022-11-21T06:13:06.976Z,0.20
2022-11-21T06:14:06.954Z,0.23
2022-11-21T06:15:06.941Z,0.22
2022-11-21T06:16:06.921Z,0.23
2022-11-21T06:17:06.922Z,0.25
2022-11-21T06:18:06.931Z,0.25
2022-11-21T06:19:06.891Z,0.26
2022-11-21T06:20:06.881Z,0.23
2022-11-21T06:21:06.877Z,0.26
2022-11-21T06:22:06.906Z,0.30
2022-11-21T06:23:06.854Z,0.28
2022-11-21T06:24:06.834Z,0.26
2022-11-21T06:25:06.851Z,0.26
2022-11-21T06:26:06.826Z,0.26
2022-11-21T06:27:06.836Z,0.26
2022-11-21T06:28:06.809Z,0.25
2022-11-21T06:29:06.827Z,0.30
2022-11-21T06:30:06.795Z,0.30
2022-11-21T06:31:06.859Z,0.30
2022-11-21T06:32:06.771Z,0.28
2022-11-21T06:33:06.757Z,0.28
2022-11-21T06:34:06.736Z,0.30
2022-11-21T06:35:06.726Z,0.31
2022-11-21T06:36:06.719Z,0.30
2022-11-21T06:37:06.734Z,0.33
2022-11-21T06:38:06.701Z,0.30
2022-11-21T06:39:06.692Z,0.31
2022-11-21T06:40:06.672Z,0.33
2022-11-21T06:41:06.695Z,0.33
2022-11-21T06:42:06.692Z,0.34
2022-11-21T06:43:06.655Z,0.33
2022-11-21T06:44:06.631Z,0.34
2022-11-21T06:45:06.626Z,0.33
2022-11-21T06:46:06.636Z,0.38
2022-11-21T06:47:06.622Z,0.34
2022-11-21T06:48:06.588Z,0.37
2022-11-21T06:49:06.576Z,0.35
2022-11-21T06:50:06.560Z,0.37
2022-11-21T06:51:06.556Z,0.35
2022-11-21T06:52:06.560Z,0.37
2022-11-21T06:53:06.541Z,0.37
2022-11-21T06:54:06.548Z,0.35
2022-11-21T06:55:06.521Z,0.37
2022-11-21T06:56:06.544Z,0.37
2022-11-21T06:57:06.551Z,0.38
2022-11-21T06:58:06.537Z,0.37
2022-11-21T06:59:06.475Z,0.40
2022-11-21T07:00:06.476Z,0.41
2022-11-21T07:01:06.557Z,0.43
2022-11-21T07:02:06.463Z,0.40
2022-11-21T07:03:06.436Z,0.40
2022-11-21T07:04:06.420Z,0.43
2022-11-21T07:05:06.422Z,0.43
2022-11-21T07:06:06.407Z,0.44
2022-11-21T07:07:06.423Z,0.48
2022-11-21T07:08:11.939Z,0.45
2022-11-21T07:10:06.377Z,0.51
2022-11-21T07:12:06.394Z,0.49
2022-11-21T07:13:06.330Z,0.52
2022-11-21T07:14:09.142Z,0.52
2022-11-21T07:15:06.311Z,0.52
2022-11-21T07:16:06.305Z,0.56
2022-11-21T07:17:06.335Z,0.52
2022-11-21T07:18:06.270Z,0.53
2022-11-21T07:19:06.268Z,0.56
2022-11-21T07:20:06.266Z,0.53
2022-11-21T07:21:06.252Z,0.52
2022-11-21T07:22:06.251Z,0.51
2022-11-21T07:23:06.223Z,0.52
2022-11-21T07:24:06.205Z,0.49
2022-11-21T07:25:06.212Z,0.48
2022-11-21T07:26:06.191Z,0.49
2022-11-21T07:27:06.212Z,0.45
2022-11-21T07:28:06.171Z,0.41
2022-11-21T07:29:06.163Z,0.43
2022-11-21T07:30:06.154Z,0.40
2022-11-21T07:31:12.950Z,0.41
2022-11-21T07:32:06.167Z,0.40
2022-11-21T07:33:06.122Z,0.37
2022-11-21T07:34:06.105Z,0.34
2022-11-21T07:35:06.141Z,0.35
2022-11-21T07:36:06.090Z,0.33
2022-11-21T07:37:06.127Z,0.34
2022-11-21T07:38:06.061Z,0.34
2022-11-21T07:39:06.071Z,0.40
2022-11-21T07:40:06.057Z,0.44
2022-11-21T07:41:06.047Z,0.51
2022-11-21T07:42:06.108Z,0.51
2022-11-21T07:43:10.634Z,0.52
2022-11-21T07:44:06.015Z,0.53
2022-11-21T07:45:05.997Z,0.51
2022-11-21T07:46:05.986Z,0.49
2022-11-21T07:47:05.981Z,0.48
2022-11-21T07:48:05.975Z,0.41
2022-11-21T07:49:05.958Z,0.37
2022-11-21T07:50:05.963Z,0.34
2022-11-21T07:51:05.952Z,0.31
2022-11-21T07:52:05.934Z,0.28
2022-11-21T07:53:05.913Z,0.31
2022-11-21T07:54:05.901Z,0.28
2022-11-21T07:55:05.890Z,0.26
2022-11-21T07:56:05.886Z,0.28
2022-11-21T07:57:05.891Z,0.30
2022-11-21T07:58:05.865Z,0.25
2022-11-21T07:59:05.857Z,0.30
2022-11-21T08:00:05.833Z,0.37
2022-11-21T08:01:05.831Z,0.57
2022-11-21T08:02:06.016Z,0.74
2022-11-21T08:03:05.812Z,0.88
2022-11-21T08:04:05.793Z,1.00
2022-11-21T08:05:05.826Z,1.08
2022-11-21T08:06:05.783Z,1.16
2022-11-21T08:07:05.834Z,1.18
2022-11-21T08:08:05.778Z,1.24
2022-11-21T08:09:05.751Z,1.28
2022-11-21T08:10:05.729Z,1.25
2022-11-21T08:11:05.743Z,1.29
2022-11-21T08:12:05.749Z,1.32
2022-11-21T08:13:05.714Z,1.34
2022-11-21T08:14:05.689Z,1.39
2022-11-21T08:15:05.686Z,1.42
2022-11-21T08:16:05.676Z,1.43
2022-11-21T08:17:05.710Z,1.39
2022-11-21T08:18:05.692Z,1.38
2022-11-21T08:19:05.645Z,1.38
2022-11-21T08:20:05.630Z,1.35
2022-11-21T08:21:05.629Z,1.34
2022-11-21T08:22:05.622Z,1.32
2022-11-21T08:23:05.605Z,1.31
2022-11-21T08:24:05.586Z,1.31
2022-11-21T08:25:05.592Z,1.26
2022-11-21T08:26:05.590Z,1.25
2022-11-21T08:27:05.572Z,1.17
2022-11-21T08:28:05.569Z,1.16
2022-11-21T08:29:05.583Z,1.13
2022-11-21T08:30:05.545Z,1.13
2022-11-21T08:31:05.523Z,1.11
2022-11-21T08:32:05.541Z,1.08
2022-11-21T08:33:05.493Z,1.08
2022-11-21T08:34:09.084Z,1.07
2022-11-21T08:35:05.485Z,1.04
2022-11-21T08:36:06.361Z,1.00
2022-11-21T08:37:05.474Z,1.00
2022-11-21T08:38:06.251Z,0.99
2022-11-21T08:39:05.438Z,0.99
2022-11-21T08:40:05.441Z,0.99
2022-11-21T08:41:05.416Z,1.02
2022-11-21T08:42:05.435Z,1.02
2022-11-21T08:43:05.387Z,0.99
2022-11-21T08:44:08.653Z,1.06
2022-11-21T08:45:05.372Z,1.00
2022-11-21T08:46:05.385Z,1.00
2022-11-21T08:47:05.353Z,1.04
2022-11-21T08:48:06.234Z,1.04
2022-11-21T08:49:05.363Z,1.06
2022-11-21T08:50:08.813Z,1.08
2022-11-21T08:51:05.844Z,1.08
2022-11-21T08:52:05.305Z,1.13
2022-11-21T08:53:05.358Z,1.14
2022-11-21T08:54:05.291Z,1.16
2022-11-21T08:55:05.284Z,1.16
2022-11-21T08:56:05.276Z,1.18
2022-11-21T08:57:05.277Z,1.16
2022-11-21T08:58:05.268Z,1.16
2022-11-21T08:59:05.310Z,1.17
2022-11-21T09:00:05.288Z,1.17
2022-11-21T09:01:05.202Z,1.17
2022-11-21T09:02:05.326Z,1.16
2022-11-21T09:03:05.226Z,1.16
2022-11-21T09:04:05.204Z,1.17
2022-11-21T09:05:05.168Z,1.14
2022-11-21T09:06:05.192Z,1.14
2022-11-21T09:07:05.236Z,1.11
2022-11-21T09:08:05.238Z,1.11
2022-11-21T09:09:05.179Z,1.11
2022-11-21T09:10:05.115Z,1.13
2022-11-21T09:11:05.102Z,1.13
2022-11-21T09:12:05.158Z,1.13
2022-11-21T09:13:05.088Z,1.11
2022-11-21T09:14:05.075Z,1.10
2022-11-21T09:15:05.959Z,1.08
2022-11-21T09:16:05.053Z,1.08
2022-11-21T09:17:05.117Z,1.08
2022-11-21T09:18:05.176Z,1.02
2022-11-21T09:19:05.107Z,1.04
2022-11-21T09:20:05.109Z,1.04
2022-11-21T09:21:04.997Z,1.02
2022-11-21T09:22:04.991Z,1.04
2022-11-21T09:23:04.982Z,1.02
2022-11-21T09:24:04.980Z,1.00
2022-11-21T09:25:04.972Z,1.02
2022-11-21T09:26:04.950Z,1.02
2022-11-21T09:27:04.933Z,0.98
2022-11-21T09:28:04.938Z,0.98
2022-11-21T09:29:04.947Z,0.95
2022-11-21T09:30:04.927Z,0.92
2022-11-21T09:31:04.894Z,0.93
2022-11-21T09:32:04.878Z,0.90
2022-11-21T09:33:04.910Z,0.92
2022-11-21T09:34:04.862Z,0.93
2022-11-21T09:35:04.851Z,0.92
2022-11-21T09:36:04.837Z,0.93
2022-11-21T09:37:04.846Z,0.95
2022-11-21T09:38:04.846Z,0.95
2022-11-21T09:39:04.815Z,0.96
2022-11-21T09:40:05.425Z,0.95
2022-11-21T09:41:04.804Z,0.96
2022-11-21T09:42:04.790Z,0.96
2022-11-21T09:43:04.767Z,0.95
2022-11-21T09:44:04.758Z,0.89
2022-11-21T09:45:04.749Z,0.88
2022-11-21T09:46:04.775Z,0.80
2022-11-21T09:47:04.728Z,0.75
2022-11-21T09:48:04.740Z,0.77
2022-11-21T09:49:04.714Z,0.72
2022-11-21T09:50:04.705Z,0.62
2022-11-21T09:51:04.687Z,0.56
2022-11-21T09:52:04.701Z,0.52
2022-11-21T09:53:04.684Z,0.49
2022-11-21T09:54:04.670Z,0.49
2022-11-21T09:55:04.665Z,0.52
2022-11-21T09:56:04.658Z,0.51
2022-11-21T09:57:04.621Z,0.52
2022-11-21T09:58:04.635Z,0.52
2022-11-21T09:59:04.602Z,0.52
2022-11-21T10:00:04.602Z,0.57
2022-11-21T10:01:04.627Z,0.59
2022-11-21T10:02:04.581Z,0.62
2022-11-21T10:03:04.571Z,0.64
2022-11-21T10:04:04.558Z,0.68
2022-11-21T10:05:04.569Z,0.64
2022-11-21T10:06:04.532Z,0.70
2022-11-21T10:07:04.633Z,0.70
2022-11-21T10:08:04.532Z,0.67
2022-11-21T10:09:04.563Z,0.67
2022-11-21T10:10:04.501Z,0.70
2022-11-21T10:11:14.133Z,0.64
2022-11-21T10:12:04.474Z,0.68
2022-11-21T10:13:04.468Z,0.56
2022-11-21T10:14:05.748Z,0.59
2022-11-21T10:15:04.457Z,0.62
2022-11-21T10:16:04.424Z,0.62
2022-11-21T10:17:04.408Z,0.63
2022-11-21T10:18:04.431Z,0.63
2022-11-21T10:19:04.395Z,0.62
2022-11-21T10:20:04.381Z,0.62
2022-11-21T10:21:04.367Z,0.62
2022-11-21T10:22:04.362Z,0.53
2022-11-21T10:23:04.359Z,0.49
2022-11-21T10:24:04.345Z,0.41
2022-11-21T10:25:04.325Z,0.40
2022-11-21T10:26:04.322Z,0.40
2022-11-21T10:27:04.312Z,0.37
2022-11-21T10:28:04.315Z,0.35
2022-11-21T10:29:04.280Z,0.35
2022-11-21T10:30:04.279Z,0.40
2022-11-21T10:31:04.263Z,0.38
2022-11-21T10:32:04.254Z,0.38
2022-11-21T10:33:04.251Z,0.40
2022-11-21T10:34:04.267Z,0.35
2022-11-21T10:35:04.217Z,0.33
2022-11-21T10:36:04.211Z,0.30
2022-11-21T10:37:07.707Z,0.26
2022-11-21T10:38:04.206Z,0.31
2022-11-21T10:39:04.175Z,0.33
2022-11-21T10:40:04.169Z,0.33
2022-11-21T10:41:04.171Z,0.34
2022-11-21T10:42:04.156Z,0.34
2022-11-21T10:43:04.140Z,0.25
2022-11-21T10:44:04.125Z,0.19
2022-11-21T10:45:04.117Z,0.15
2022-11-21T10:46:04.108Z,0.10
2022-11-21T10:47:04.090Z,0.12
2022-11-21T10:48:08.157Z,0.07
2022-11-21T10:49:04.101Z,0.08
2022-11-21T10:50:04.071Z,0.05
2022-11-21T10:51:04.050Z,0.01
2022-11-21T10:52:04.072Z,-0.02
2022-11-21T10:53:04.034Z,-0.06
2022-11-21T10:54:07.798Z,-0.05
2022-11-21T10:55:04.010Z,-0.06
2022-11-21T10:56:04.013Z,-0.05
2022-11-21T10:57:03.990Z,-0.06
2022-11-21T10:58:03.984Z,-0.06
2022-11-21T10:59:03.977Z,-0.03
2022-11-21T11:00:03.983Z,-0.03
2022-11-21T11:01:04.028Z,0.01
2022-11-21T11:02:03.943Z,0.07
2022-11-21T11:03:03.959Z,0.10
2022-11-21T11:04:26.297Z,0.08
2022-11-21T11:05:03.925Z,0.10
2022-11-21T11:06:03.903Z,0.08
2022-11-21T11:07:03.970Z,0.13
2022-11-21T11:08:03.894Z,0.15
2022-11-21T11:09:03.875Z,0.13
2022-11-21T11:10:03.874Z,0.13
2022-11-21T11:11:03.845Z,0.13
2022-11-21T11:12:03.858Z,0.15
2022-11-21T11:13:05.252Z,0.16
2022-11-21T11:14:03.829Z,0.19
2022-11-21T11:15:03.851Z,0.20
2022-11-21T11:16:03.826Z,0.22
2022-11-21T11:17:03.778Z,0.26
2022-11-21T11:18:09.019Z,0.30
2022-11-21T11:19:04.432Z,0.31
2022-11-21T11:20:03.754Z,0.33
2022-11-21T11:21:03.744Z,0.31
2022-11-21T11:22:03.734Z,0.31
2022-11-21T11:23:03.731Z,0.31
2022-11-21T11:24:03.706Z,0.33
2022-11-21T11:25:03.732Z,0.34
2022-11-21T11:26:03.731Z,0.34
2022-11-21T11:27:03.689Z,0.33
2022-11-21T11:28:03.692Z,0.34
2022-11-21T11:29:03.656Z,0.37
2022-11-21T11:30:03.652Z,0.35
2022-11-21T11:31:03.638Z,0.34
2022-11-21T11:32:03.650Z,0.35
2022-11-21T11:33:03.662Z,0.35
2022-11-21T11:34:03.602Z,0.38
2022-11-21T11:35:03.685Z,0.35
2022-11-21T11:36:04.360Z,0.37
2022-11-21T11:37:03.584Z,0.41
2022-11-21T11:38:03.603Z,0.41
2022-11-21T11:39:03.619Z,0.44
2022-11-21T11:40:03.548Z,0.48
2022-11-21T11:41:03.537Z,0.45
2022-11-21T11:42:03.549Z,0.49
2022-11-21T11:43:03.534Z,0.53
2022-11-21T11:44:03.537Z,0.52
2022-11-21T11:45:03.499Z,0.51
2022-11-21T11:46:03.489Z,0.44
2022-11-21T11:47:03.473Z,0.45
2022-11-21T11:48:03.494Z,0.40
2022-11-21T11:49:19.886Z,0.40
2022-11-21T11:50:03.469Z,0.40
2022-11-21T11:51:03.462Z,0.37
2022-11-21T11:52:03.458Z,0.40
2022-11-21T11:53:03.500Z,0.41
2022-11-21T11:54:03.442Z,0.38
2022-11-21T11:55:03.426Z,0.40
2022-11-21T11:56:03.444Z,0.45
2022-11-21T11:57:03.427Z,0.40
2022-11-21T11:58:03.382Z,0.41
2022-11-21T11:59:03.451Z,0.31
2022-11-21T12:00:03.368Z,0.31
2022-11-21T12:01:03.472Z,0.26
2022-11-21T12:02:07.490Z,0.26
2022-11-21T12:03:03.406Z,0.19
2022-11-21T12:04:03.304Z,0.23
2022-11-21T12:05:03.281Z,0.23
2022-11-21T12:06:08.623Z,0.25
2022-11-21T12:08:20.092Z,0.26
2022-11-21T12:08:42.656Z,0.33
2022-11-21T12:09:03.309Z,0.30
2022-11-21T12:10:03.248Z,0.31
2022-11-21T12:11:03.225Z,0.31
2022-11-21T12:12:03.210Z,0.30
2022-11-21T12:13:03.201Z,0.26
2022-11-21T12:14:03.267Z,0.28
2022-11-21T12:15:03.175Z,0.28
2022-11-21T12:16:08.497Z,0.30
2022-11-21T12:17:03.160Z,0.30
2022-11-21T12:18:03.154Z,0.31
2022-11-21T12:19:03.177Z,0.30
2022-11-21T12:20:03.144Z,0.31
2022-11-21T12:21:03.140Z,0.31
2022-11-21T12:22:03.100Z,0.30
2022-11-21T12:23:03.087Z,0.19
2022-11-21T12:24:03.087Z,0.08
2022-11-21T12:25:03.083Z,0.02
2022-11-21T12:26:03.063Z,-0.06
2022-11-21T12:27:03.049Z,-0.08
2022-11-21T12:28:03.049Z,-0.14
2022-11-21T12:29:03.035Z,-0.19
2022-11-21T12:30:03.020Z,-0.14
2022-11-21T12:31:03.010Z,-0.13
2022-11-21T12:32:02.997Z,-0.06
2022-11-21T12:33:08.235Z,0.01
2022-11-21T12:34:02.997Z,0.08
2022-11-21T12:35:02.964Z,0.16
2022-11-21T12:36:16.728Z,0.17
2022-11-21T12:37:02.941Z,0.22
2022-11-21T12:38:02.934Z,0.20
2022-11-21T12:39:02.934Z,0.23
2022-11-21T12:40:02.917Z,0.26
2022-11-21T12:41:02.901Z,0.22
2022-11-21T12:42:02.891Z,0.19
2022-11-21T12:43:02.885Z,0.19
2022-11-21T12:44:02.898Z,0.17
2022-11-21T12:45:02.877Z,0.10
2022-11-21T12:46:02.859Z,-0.08
2022-11-21T12:47:02.832Z,-0.14
2022-11-21T12:48:02.827Z,-0.21
2022-11-21T12:49:02.837Z,-0.27
2022-11-21T12:50:02.813Z,-0.32
2022-11-21T12:51:02.795Z,-0.31
2022-11-21T12:52:02.781Z,-0.31
2022-11-21T12:53:02.774Z,-0.31
2022-11-21T12:54:02.765Z,-0.27
2022-11-21T12:55:02.754Z,-0.31
2022-11-21T12:56:02.754Z,-0.27
2022-11-21T12:57:02.733Z,-0.24
2022-11-21T12:58:02.720Z,-0.24
2022-11-21T12:59:02.720Z,-0.30
2022-11-21T13:00:02.719Z,-0.30
2022-11-21T13:01:02.792Z,-0.34
2022-11-21T13:02:02.682Z,-0.32
2022-11-21T13:03:02.687Z,-0.32
2022-11-21T13:04:02.669Z,-0.34
2022-11-21T13:05:02.653Z,-0.44
2022-11-21T13:06:02.640Z,-0.50
2022-11-21T13:07:02.653Z,-0.53
2022-11-21T13:08:02.652Z,-0.56